sensor_id;sensor_type;location;lat;lon;timestamp;temperature;humidity
55064;DHT22;40963;52.168;21.296;2023-04-30T00:00:11;10.00;96.70
55064;DHT22;40963;52.168;21.296;2023-04-30T00:02:37;10.00;97.40
55064;DHT22;40963;52.168;21.296;2023-04-30T00:05:03;10.00;97.80
55064;DHT22;40963;52.168;21.296;2023-04-30T00:07:29;10.10;97.90
55064;DHT22;40963;52.168;21.296;2023-04-30T00:09:54;10.10;97.90
55064;DHT22;40963;52.168;21.296;2023-04-30T00:12:20;10.10;98.10
55064;DHT22;40963;52.168;21.296;2023-04-30T00:14:46;10.10;98.40
55064;DHT22;40963;52.168;21.296;2023-04-30T00:17:12;10.10;98.30
55064;DHT22;40963;52.168;21.296;2023-04-30T00:19:37;10.10;98.60
55064;DHT22;40963;52.168;21.296;2023-04-30T00:22:03;10.10;99.20
55064;DHT22;40963;52.168;21.296;2023-04-30T00:24:29;10.10;99.90
55064;DHT22;40963;52.168;21.296;2023-04-30T00:26:55;10.10;99.90
55064;DHT22;40963;52.168;21.296;2023-04-30T00:29:20;10.10;99.90
55064;DHT22;40963;52.168;21.296;2023-04-30T00:31:46;10.20;99.90
55064;DHT22;40963;52.168;21.296;2023-04-30T00:34:11;10.20;99.90
55064;DHT22;40963;52.168;21.296;2023-04-30T00:36:37;10.20;99.90
55064;DHT22;40963;52.168;21.296;2023-04-30T00:39:04;10.10;99.90
55064;DHT22;40963;52.168;21.296;2023-04-30T00:41:30;10.20;99.90
55064;DHT22;40963;52.168;21.296;2023-04-30T00:43:56;10.20;99.90
55064;DHT22;40963;52.168;21.296;2023-04-30T00:46:21;10.10;99.90
55064;DHT22;40963;52.168;21.296;2023-04-30T00:48:47;10.10;99.90
55064;DHT22;40963;52.168;21.296;2023-04-30T00:51:13;10.10;99.90
55064;DHT22;40963;52.168;21.296;2023-04-30T00:53:39;10.00;99.90
55064;DHT22;40963;52.168;21.296;2023-04-30T00:56:08;10.00;99.90
55064;DHT22;40963;52.168;21.296;2023-04-30T00:58:34;9.90;99.90
55064;DHT22;40963;52.168;21.296;2023-04-30T01:01:00;9.90;99.90
55064;DHT22;40963;52.168;21.296;2023-04-30T01:03:27;9.90;99.90
55064;DHT22;40963;52.168;21.296;2023-04-30T01:05:53;9.90;99.90
55064;DHT22;40963;52.168;21.296;2023-04-30T01:08:18;9.90;99.90
55064;DHT22;40963;52.168;21.296;2023-04-30T01:11:06;9.80;99.90
55064;DHT22;40963;52.168;21.296;2023-04-30T01:13:44;9.80;99.90
55064;DHT22;40963;52.168;21.296;2023-04-30T01:18:51;9.80;99.90
55064;DHT22;40963;52.168;21.296;2023-04-30T01:21:18;9.80;99.90
55064;DHT22;40963;52.168;21.296;2023-04-30T01:27:34;9.80;99.90
55064;DHT22;40963;52.168;21.296;2023-04-30T01:30:05;9.80;99.90
55064;DHT22;40963;52.168;21.296;2023-04-30T01:32:31;9.80;99.90
55064;DHT22;40963;52.168;21.296;2023-04-30T01:34:57;9.70;99.90
55064;DHT22;40963;52.168;21.296;2023-04-30T01:48:31;9.70;99.90
55064;DHT22;40963;52.168;21.296;2023-04-30T01:51:19;9.70;99.90
55064;DHT22;40963;52.168;21.296;2023-04-30T01:53:46;9.70;99.90
55064;DHT22;40963;52.168;21.296;2023-04-30T01:56:26;9.70;99.90
55064;DHT22;40963;52.168;21.296;2023-04-30T01:58:52;9.80;99.90
55064;DHT22;40963;52.168;21.296;2023-04-30T02:01:28;9.70;99.90
55064;DHT22;40963;52.168;21.296;2023-04-30T02:03:55;9.80;99.90
55064;DHT22;40963;52.168;21.296;2023-04-30T02:06:21;9.80;99.90
55064;DHT22;40963;52.168;21.296;2023-04-30T02:08:47;9.70;99.90
55064;DHT22;40963;52.168;21.296;2023-04-30T02:11:12;9.70;99.90
55064;DHT22;40963;52.168;21.296;2023-04-30T02:13:38;9.70;99.90
55064;DHT22;40963;52.168;21.296;2023-04-30T02:16:04;9.70;99.90
55064;DHT22;40963;52.168;21.296;2023-04-30T02:18:30;9.70;99.90
55064;DHT22;40963;52.168;21.296;2023-04-30T02:20:55;9.70;99.90
55064;DHT22;40963;52.168;21.296;2023-04-30T02:23:21;9.70;99.90
55064;DHT22;40963;52.168;21.296;2023-04-30T02:25:46;9.70;99.90
55064;DHT22;40963;52.168;21.296;2023-04-30T02:28:12;9.70;99.90
55064;DHT22;40963;52.168;21.296;2023-04-30T02:30:37;9.70;99.90
55064;DHT22;40963;52.168;21.296;2023-04-30T02:33:03;9.70;99.90
55064;DHT22;40963;52.168;21.296;2023-04-30T02:35:29;9.70;99.90
55064;DHT22;40963;52.168;21.296;2023-04-30T02:37:55;9.80;99.90
55064;DHT22;40963;52.168;21.296;2023-04-30T02:40:20;9.80;99.90
55064;DHT22;40963;52.168;21.296;2023-04-30T02:42:46;9.70;99.90
55064;DHT22;40963;52.168;21.296;2023-04-30T02:45:12;9.80;99.90
55064;DHT22;40963;52.168;21.296;2023-04-30T02:47:38;9.70;99.90
55064;DHT22;40963;52.168;21.296;2023-04-30T02:50:04;9.70;99.90
55064;DHT22;40963;52.168;21.296;2023-04-30T02:52:31;9.70;99.90
55064;DHT22;40963;52.168;21.296;2023-04-30T02:54:56;9.70;99.90
55064;DHT22;40963;52.168;21.296;2023-04-30T02:57:22;9.70;99.90
55064;DHT22;40963;52.168;21.296;2023-04-30T02:59:48;9.70;99.90
55064;DHT22;40963;52.168;21.296;2023-04-30T03:02:13;9.80;99.90
55064;DHT22;40963;52.168;21.296;2023-04-30T03:04:39;9.80;99.90
55064;DHT22;40963;52.168;21.296;2023-04-30T03:07:04;9.80;99.90
55064;DHT22;40963;52.168;21.296;2023-04-30T03:09:31;9.80;99.90
55064;DHT22;40963;52.168;21.296;2023-04-30T03:11:56;9.80;99.90
55064;DHT22;40963;52.168;21.296;2023-04-30T03:14:22;9.80;99.90
55064;DHT22;40963;52.168;21.296;2023-04-30T03:16:48;9.80;99.90
55064;DHT22;40963;52.168;21.296;2023-04-30T03:19:13;9.80;99.90
55064;DHT22;40963;52.168;21.296;2023-04-30T03:21:39;9.80;99.90
55064;DHT22;40963;52.168;21.296;2023-04-30T03:24:05;9.80;99.90
55064;DHT22;40963;52.168;21.296;2023-04-30T03:26:31;9.80;99.90
55064;DHT22;40963;52.168;21.296;2023-04-30T03:28:57;9.90;99.90
55064;DHT22;40963;52.168;21.296;2023-04-30T03:31:22;9.80;99.90
55064;DHT22;40963;52.168;21.296;2023-04-30T03:33:48;9.90;99.90
55064;DHT22;40963;52.168;21.296;2023-04-30T03:36:13;9.90;99.90
55064;DHT22;40963;52.168;21.296;2023-04-30T03:38:39;9.90;99.90
55064;DHT22;40963;52.168;21.296;2023-04-30T03:41:06;9.90;99.90
55064;DHT22;40963;52.168;21.296;2023-04-30T03:43:32;9.90;99.90
55064;DHT22;40963;52.168;21.296;2023-04-30T03:45:58;10.00;99.90
55064;DHT22;40963;52.168;21.296;2023-04-30T03:48:23;10.00;99.90
55064;DHT22;40963;52.168;21.296;2023-04-30T03:50:49;10.10;99.90
55064;DHT22;40963;52.168;21.296;2023-04-30T03:53:14;10.20;99.90
55064;DHT22;40963;52.168;21.296;2023-04-30T03:55:41;10.40;99.90
55064;DHT22;40963;52.168;21.296;2023-04-30T03:58:06;10.50;99.90
55064;DHT22;40963;52.168;21.296;2023-04-30T04:00:32;10.50;99.90
55064;DHT22;40963;52.168;21.296;2023-04-30T04:02:58;10.60;99.90
55064;DHT22;40963;52.168;21.296;2023-04-30T04:05:24;10.60;99.90
55064;DHT22;40963;52.168;21.296;2023-04-30T04:07:50;10.60;99.90
55064;DHT22;40963;52.168;21.296;2023-04-30T04:10:16;10.60;99.90
55064;DHT22;40963;52.168;21.296;2023-04-30T04:12:42;10.70;99.90
55064;DHT22;40963;52.168;21.296;2023-04-30T04:15:08;10.70;99.90
55064;DHT22;40963;52.168;21.296;2023-04-30T04:17:34;10.70;99.90
55064;DHT22;40963;52.168;21.296;2023-04-30T04:19:59;10.70;99.90
55064;DHT22;40963;52.168;21.296;2023-04-30T04:22:25;10.70;99.90
55064;DHT22;40963;52.168;21.296;2023-04-30T04:24:51;10.60;99.90
55064;DHT22;40963;52.168;21.296;2023-04-30T04:27:16;10.50;99.90
55064;DHT22;40963;52.168;21.296;2023-04-30T04:29:42;10.50;99.90
55064;DHT22;40963;52.168;21.296;2023-04-30T04:32:08;10.50;99.90
55064;DHT22;40963;52.168;21.296;2023-04-30T04:34:34;10.40;99.90
55064;DHT22;40963;52.168;21.296;2023-04-30T04:37:00;10.40;99.90
55064;DHT22;40963;52.168;21.296;2023-04-30T04:39:26;10.30;99.90
55064;DHT22;40963;52.168;21.296;2023-04-30T04:41:51;10.30;99.90
55064;DHT22;40963;52.168;21.296;2023-04-30T04:44:17;10.30;99.90
55064;DHT22;40963;52.168;21.296;2023-04-30T04:46:42;10.20;99.90
55064;DHT22;40963;52.168;21.296;2023-04-30T04:49:08;10.20;99.90
55064;DHT22;40963;52.168;21.296;2023-04-30T04:51:34;10.10;99.90
55064;DHT22;40963;52.168;21.296;2023-04-30T04:54:00;10.10;99.90
55064;DHT22;40963;52.168;21.296;2023-04-30T04:56:25;10.00;99.90
55064;DHT22;40963;52.168;21.296;2023-04-30T04:58:51;10.00;99.90
55064;DHT22;40963;52.168;21.296;2023-04-30T05:01:17;9.90;99.90
55064;DHT22;40963;52.168;21.296;2023-04-30T05:03:43;9.90;99.90
55064;DHT22;40963;52.168;21.296;2023-04-30T05:06:08;9.90;99.90
55064;DHT22;40963;52.168;21.296;2023-04-30T05:08:34;9.80;99.90
55064;DHT22;40963;52.168;21.296;2023-04-30T05:10:59;9.80;99.90
55064;DHT22;40963;52.168;21.296;2023-04-30T05:13:25;9.70;99.90
55064;DHT22;40963;52.168;21.296;2023-04-30T05:15:51;9.70;99.90
55064;DHT22;40963;52.168;21.296;2023-04-30T05:18:18;9.70;99.90
55064;DHT22;40963;52.168;21.296;2023-04-30T05:20:43;9.60;99.90
55064;DHT22;40963;52.168;21.296;2023-04-30T05:23:09;9.60;99.90
55064;DHT22;40963;52.168;21.296;2023-04-30T05:25:35;9.60;99.90
55064;DHT22;40963;52.168;21.296;2023-04-30T05:28:01;9.60;99.90
55064;DHT22;40963;52.168;21.296;2023-04-30T05:30:27;9.50;99.90
55064;DHT22;40963;52.168;21.296;2023-04-30T05:32:54;9.50;99.90
55064;DHT22;40963;52.168;21.296;2023-04-30T05:35:21;9.60;99.90
55064;DHT22;40963;52.168;21.296;2023-04-30T05:37:47;9.60;99.90
55064;DHT22;40963;52.168;21.296;2023-04-30T05:40:12;9.50;99.90
55064;DHT22;40963;52.168;21.296;2023-04-30T05:42:38;9.60;99.90
55064;DHT22;40963;52.168;21.296;2023-04-30T05:45:06;9.60;99.90
55064;DHT22;40963;52.168;21.296;2023-04-30T05:47:31;9.70;99.90
55064;DHT22;40963;52.168;21.296;2023-04-30T05:49:57;9.70;99.90
55064;DHT22;40963;52.168;21.296;2023-04-30T05:52:23;9.80;99.90
55064;DHT22;40963;52.168;21.296;2023-04-30T05:54:49;9.80;99.90
55064;DHT22;40963;52.168;21.296;2023-04-30T05:57:15;9.90;99.90
55064;DHT22;40963;52.168;21.296;2023-04-30T05:59:41;9.90;99.90
55064;DHT22;40963;52.168;21.296;2023-04-30T06:02:06;10.00;99.90
55064;DHT22;40963;52.168;21.296;2023-04-30T06:04:32;10.10;99.90
55064;DHT22;40963;52.168;21.296;2023-04-30T06:06:58;10.10;99.90
55064;DHT22;40963;52.168;21.296;2023-04-30T06:09:23;10.20;99.90
55064;DHT22;40963;52.168;21.296;2023-04-30T06:11:49;10.30;99.90
55064;DHT22;40963;52.168;21.296;2023-04-30T06:14:17;10.30;99.90
55064;DHT22;40963;52.168;21.296;2023-04-30T06:16:45;10.30;99.90
55064;DHT22;40963;52.168;21.296;2023-04-30T06:19:11;10.40;99.90
55064;DHT22;40963;52.168;21.296;2023-04-30T06:21:37;10.50;99.90
55064;DHT22;40963;52.168;21.296;2023-04-30T06:24:03;10.50;99.90
55064;DHT22;40963;52.168;21.296;2023-04-30T06:26:28;10.60;99.90
55064;DHT22;40963;52.168;21.296;2023-04-30T06:28:55;10.60;99.90
55064;DHT22;40963;52.168;21.296;2023-04-30T06:31:21;10.70;99.90
55064;DHT22;40963;52.168;21.296;2023-04-30T06:33:46;10.70;99.90
55064;DHT22;40963;52.168;21.296;2023-04-30T06:36:12;10.80;99.90
55064;DHT22;40963;52.168;21.296;2023-04-30T06:38:38;10.90;99.90
55064;DHT22;40963;52.168;21.296;2023-04-30T06:41:04;10.90;99.90
55064;DHT22;40963;52.168;21.296;2023-04-30T06:43:30;11.00;99.90
55064;DHT22;40963;52.168;21.296;2023-04-30T06:45:55;11.00;99.90
55064;DHT22;40963;52.168;21.296;2023-04-30T06:48:21;11.00;99.10
55064;DHT22;40963;52.168;21.296;2023-04-30T06:50:47;10.90;98.60
55064;DHT22;40963;52.168;21.296;2023-04-30T06:53:13;10.90;98.00
55064;DHT22;40963;52.168;21.296;2023-04-30T06:55:40;10.90;96.70
55064;DHT22;40963;52.168;21.296;2023-04-30T06:58:06;10.90;96.10
55064;DHT22;40963;52.168;21.296;2023-04-30T07:00:33;10.90;95.50
55064;DHT22;40963;52.168;21.296;2023-04-30T07:02:58;10.90;95.20
55064;DHT22;40963;52.168;21.296;2023-04-30T07:05:29;11.10;94.40
55064;DHT22;40963;52.168;21.296;2023-04-30T07:07:55;11.20;92.90
55064;DHT22;40963;52.168;21.296;2023-04-30T07:10:21;11.30;90.20
55064;DHT22;40963;52.168;21.296;2023-04-30T07:12:47;11.40;88.40
55064;DHT22;40963;52.168;21.296;2023-04-30T07:15:12;11.50;86.60
55064;DHT22;40963;52.168;21.296;2023-04-30T07:17:38;11.50;84.10
55064;DHT22;40963;52.168;21.296;2023-04-30T07:20:06;11.60;83.40
55064;DHT22;40963;52.168;21.296;2023-04-30T07:22:32;11.70;82.70
55064;DHT22;40963;52.168;21.296;2023-04-30T07:24:58;11.80;79.00
55064;DHT22;40963;52.168;21.296;2023-04-30T07:27:25;11.90;77.20
55064;DHT22;40963;52.168;21.296;2023-04-30T07:29:50;11.90;74.40
55064;DHT22;40963;52.168;21.296;2023-04-30T07:32:16;11.90;74.30
55064;DHT22;40963;52.168;21.296;2023-04-30T07:34:42;12.00;73.10
55064;DHT22;40963;52.168;21.296;2023-04-30T07:37:08;11.90;72.80
55064;DHT22;40963;52.168;21.296;2023-04-30T07:39:34;12.00;73.60
55064;DHT22;40963;52.168;21.296;2023-04-30T07:42:02;12.10;74.50
55064;DHT22;40963;52.168;21.296;2023-04-30T07:44:29;12.30;74.10
55064;DHT22;40963;52.168;21.296;2023-04-30T07:46:55;12.40;74.40
55064;DHT22;40963;52.168;21.296;2023-04-30T07:49:20;12.60;74.00
55064;DHT22;40963;52.168;21.296;2023-04-30T07:51:46;12.70;71.50
55064;DHT22;40963;52.168;21.296;2023-04-30T07:54:12;12.80;71.10
55064;DHT22;40963;52.168;21.296;2023-04-30T07:56:37;12.90;70.30
55064;DHT22;40963;52.168;21.296;2023-04-30T07:59:04;13.00;69.10
55064;DHT22;40963;52.168;21.296;2023-04-30T08:01:30;13.00;68.80
55064;DHT22;40963;52.168;21.296;2023-04-30T08:03:56;13.00;69.40
55064;DHT22;40963;52.168;21.296;2023-04-30T08:06:21;13.10;69.70
55064;DHT22;40963;52.168;21.296;2023-04-30T08:08:48;13.20;70.20
55064;DHT22;40963;52.168;21.296;2023-04-30T08:11:13;13.30;69.60
55064;DHT22;40963;52.168;21.296;2023-04-30T08:13:40;13.30;69.30
55064;DHT22;40963;52.168;21.296;2023-04-30T08:16:06;13.40;69.40
55064;DHT22;40963;52.168;21.296;2023-04-30T08:18:32;13.40;69.20
55064;DHT22;40963;52.168;21.296;2023-04-30T08:20:59;13.40;68.80
55064;DHT22;40963;52.168;21.296;2023-04-30T08:23:26;13.50;68.60
55064;DHT22;40963;52.168;21.296;2023-04-30T08:25:52;13.60;68.70
55064;DHT22;40963;52.168;21.296;2023-04-30T08:28:17;13.60;68.50
55064;DHT22;40963;52.168;21.296;2023-04-30T08:30:43;13.70;68.00
55064;DHT22;40963;52.168;21.296;2023-04-30T08:33:09;13.70;67.10
55064;DHT22;40963;52.168;21.296;2023-04-30T08:35:35;13.60;65.60
55064;DHT22;40963;52.168;21.296;2023-04-30T08:38:00;13.60;66.20
55064;DHT22;40963;52.168;21.296;2023-04-30T08:40:26;13.60;65.10
55064;DHT22;40963;52.168;21.296;2023-04-30T08:43:12;13.60;64.80
55064;DHT22;40963;52.168;21.296;2023-04-30T08:45:38;13.80;65.50
55064;DHT22;40963;52.168;21.296;2023-04-30T08:48:09;13.90;65.50
55064;DHT22;40963;52.168;21.296;2023-04-30T08:50:39;14.10;64.90
55064;DHT22;40963;52.168;21.296;2023-04-30T08:53:07;14.10;63.50
55064;DHT22;40963;52.168;21.296;2023-04-30T08:55:33;14.00;63.00
55064;DHT22;40963;52.168;21.296;2023-04-30T08:57:58;13.90;62.80
55064;DHT22;40963;52.168;21.296;2023-04-30T09:00:24;13.90;62.70
55064;DHT22;40963;52.168;21.296;2023-04-30T09:02:51;13.90;62.40
55064;DHT22;40963;52.168;21.296;2023-04-30T09:05:17;14.00;61.70
55064;DHT22;40963;52.168;21.296;2023-04-30T09:07:44;14.00;61.80
55064;DHT22;40963;52.168;21.296;2023-04-30T09:10:16;14.10;60.90
55064;DHT22;40963;52.168;21.296;2023-04-30T09:12:42;14.00;60.40
55064;DHT22;40963;52.168;21.296;2023-04-30T09:15:11;14.10;61.40
55064;DHT22;40963;52.168;21.296;2023-04-30T09:17:37;14.20;61.20
55064;DHT22;40963;52.168;21.296;2023-04-30T09:20:10;14.40;61.60
55064;DHT22;40963;52.168;21.296;2023-04-30T09:22:38;14.50;61.60
55064;DHT22;40963;52.168;21.296;2023-04-30T09:25:04;14.60;61.10
55064;DHT22;40963;52.168;21.296;2023-04-30T09:27:30;14.70;61.40
55064;DHT22;40963;52.168;21.296;2023-04-30T09:29:56;14.70;59.60
55064;DHT22;40963;52.168;21.296;2023-04-30T09:32:21;14.60;59.40
55064;DHT22;40963;52.168;21.296;2023-04-30T09:34:47;14.60;59.10
55064;DHT22;40963;52.168;21.296;2023-04-30T09:37:13;14.60;58.40
55064;DHT22;40963;52.168;21.296;2023-04-30T09:39:50;14.60;57.30
55064;DHT22;40963;52.168;21.296;2023-04-30T09:42:17;14.50;56.40
55064;DHT22;40963;52.168;21.296;2023-04-30T09:44:46;14.60;56.60
55064;DHT22;40963;52.168;21.296;2023-04-30T09:47:16;14.60;55.00
55064;DHT22;40963;52.168;21.296;2023-04-30T09:49:46;14.60;54.40
55064;DHT22;40963;52.168;21.296;2023-04-30T09:52:14;14.70;54.70
55064;DHT22;40963;52.168;21.296;2023-04-30T09:54:43;14.80;55.10
55064;DHT22;40963;52.168;21.296;2023-04-30T09:57:11;14.80;53.70
55064;DHT22;40963;52.168;21.296;2023-04-30T09:59:37;14.90;53.80
55064;DHT22;40963;52.168;21.296;2023-04-30T10:02:07;14.90;54.10
55064;DHT22;40963;52.168;21.296;2023-04-30T10:07:21;15.10;53.00
55064;DHT22;40963;52.168;21.296;2023-04-30T10:09:58;15.10;51.70
55064;DHT22;40963;52.168;21.296;2023-04-30T10:12:47;15.10;51.40
55064;DHT22;40963;52.168;21.296;2023-04-30T10:15:18;15.10;51.10
55064;DHT22;40963;52.168;21.296;2023-04-30T10:17:49;15.10;50.90
55064;DHT22;40963;52.168;21.296;2023-04-30T10:20:18;15.10;51.40
55064;DHT22;40963;52.168;21.296;2023-04-30T10:22:47;15.10;50.80
55064;DHT22;40963;52.168;21.296;2023-04-30T10:25:16;15.00;50.80
55064;DHT22;40963;52.168;21.296;2023-04-30T10:27:42;14.80;50.30
55064;DHT22;40963;52.168;21.296;2023-04-30T10:30:09;14.70;50.40
55064;DHT22;40963;52.168;21.296;2023-04-30T10:32:44;14.70;51.40
55064;DHT22;40963;52.168;21.296;2023-04-30T10:35:14;14.80;51.90
55064;DHT22;40963;52.168;21.296;2023-04-30T10:37:52;14.90;50.80
55064;DHT22;40963;52.168;21.296;2023-04-30T10:40:19;14.90;49.50
55064;DHT22;40963;52.168;21.296;2023-04-30T10:42:46;14.90;49.70
55064;DHT22;40963;52.168;21.296;2023-04-30T10:45:13;14.90;48.20
55064;DHT22;40963;52.168;21.296;2023-04-30T10:47:43;14.90;47.70
55064;DHT22;40963;52.168;21.296;2023-04-30T10:50:11;15.00;47.60
55064;DHT22;40963;52.168;21.296;2023-04-30T10:52:37;15.00;46.80
55064;DHT22;40963;52.168;21.296;2023-04-30T10:55:04;14.90;46.70
55064;DHT22;40963;52.168;21.296;2023-04-30T10:57:30;14.90;46.40
55064;DHT22;40963;52.168;21.296;2023-04-30T11:02:41;15.00;45.50
55064;DHT22;40963;52.168;21.296;2023-04-30T11:05:15;15.10;45.50
55064;DHT22;40963;52.168;21.296;2023-04-30T11:07:55;15.20;45.80
55064;DHT22;40963;52.168;21.296;2023-04-30T11:10:23;15.20;44.60
55064;DHT22;40963;52.168;21.296;2023-04-30T11:12:51;15.10;43.90
55064;DHT22;40963;52.168;21.296;2023-04-30T11:15:25;15.20;44.40
55064;DHT22;40963;52.168;21.296;2023-04-30T11:17:55;15.10;44.80
55064;DHT22;40963;52.168;21.296;2023-04-30T11:20:23;15.10;45.30
55064;DHT22;40963;52.168;21.296;2023-04-30T11:23:22;15.10;45.30
55064;DHT22;40963;52.168;21.296;2023-04-30T11:25:48;15.00;44.90
55064;DHT22;40963;52.168;21.296;2023-04-30T11:28:25;15.00;45.20
55064;DHT22;40963;52.168;21.296;2023-04-30T11:30:58;15.00;46.10
55064;DHT22;40963;52.168;21.296;2023-04-30T11:33:25;15.10;45.90
55064;DHT22;40963;52.168;21.296;2023-04-30T11:35:52;15.10;46.00
55064;DHT22;40963;52.168;21.296;2023-04-30T11:38:42;15.00;45.80
55064;DHT22;40963;52.168;21.296;2023-04-30T11:41:11;15.00;46.40
55064;DHT22;40963;52.168;21.296;2023-04-30T11:43:37;14.90;46.60
55064;DHT22;40963;52.168;21.296;2023-04-30T11:46:15;14.90;46.00
55064;DHT22;40963;52.168;21.296;2023-04-30T11:48:43;14.90;46.30
55064;DHT22;40963;52.168;21.296;2023-04-30T11:51:20;15.00;46.80
55064;DHT22;40963;52.168;21.296;2023-04-30T11:53:47;15.00;46.40
55064;DHT22;40963;52.168;21.296;2023-04-30T11:56:17;15.10;46.10
55064;DHT22;40963;52.168;21.296;2023-04-30T11:58:45;15.10;46.50
55064;DHT22;40963;52.168;21.296;2023-04-30T12:01:11;15.20;45.90
55064;DHT22;40963;52.168;21.296;2023-04-30T12:06:12;15.10;44.90
55064;DHT22;40963;52.168;21.296;2023-04-30T12:08:45;15.10;45.00
55064;DHT22;40963;52.168;21.296;2023-04-30T12:13:51;15.30;44.60
55064;DHT22;40963;52.168;21.296;2023-04-30T12:16:16;15.30;45.30
55064;DHT22;40963;52.168;21.296;2023-04-30T12:18:42;15.30;43.80
55064;DHT22;40963;52.168;21.296;2023-04-30T12:21:08;15.20;43.20
55064;DHT22;40963;52.168;21.296;2023-04-30T12:23:34;15.10;43.90
55064;DHT22;40963;52.168;21.296;2023-04-30T12:26:00;15.10;44.40
55064;DHT22;40963;52.168;21.296;2023-04-30T12:28:27;15.10;44.90
55064;DHT22;40963;52.168;21.296;2023-04-30T12:30:52;15.10;44.90
55064;DHT22;40963;52.168;21.296;2023-04-30T12:33:18;15.20;45.00
55064;DHT22;40963;52.168;21.296;2023-04-30T12:35:44;15.10;43.90
55064;DHT22;40963;52.168;21.296;2023-04-30T12:38:10;15.10;45.20
55064;DHT22;40963;52.168;21.296;2023-04-30T12:40:35;15.10;45.40
55064;DHT22;40963;52.168;21.296;2023-04-30T12:43:04;15.00;45.20
55064;DHT22;40963;52.168;21.296;2023-04-30T12:45:53;15.00;46.00
55064;DHT22;40963;52.168;21.296;2023-04-30T12:48:21;15.10;45.50
55064;DHT22;40963;52.168;21.296;2023-04-30T12:50:59;15.10;45.10
55064;DHT22;40963;52.168;21.296;2023-04-30T12:53:29;15.00;44.10
55064;DHT22;40963;52.168;21.296;2023-04-30T12:56:12;15.10;44.30
55064;DHT22;40963;52.168;21.296;2023-04-30T12:58:43;15.10;44.80
55064;DHT22;40963;52.168;21.296;2023-04-30T13:01:20;15.20;44.10
55064;DHT22;40963;52.168;21.296;2023-04-30T13:03:48;15.10;43.30
55064;DHT22;40963;52.168;21.296;2023-04-30T13:06:13;15.10;43.60
55064;DHT22;40963;52.168;21.296;2023-04-30T13:08:39;15.20;44.20
55064;DHT22;40963;52.168;21.296;2023-04-30T13:11:05;15.20;43.90
55064;DHT22;40963;52.168;21.296;2023-04-30T13:13:31;15.20;43.80
55064;DHT22;40963;52.168;21.296;2023-04-30T13:15:56;15.20;44.20
55064;DHT22;40963;52.168;21.296;2023-04-30T13:18:22;15.20;45.30
55064;DHT22;40963;52.168;21.296;2023-04-30T13:20:48;15.20;44.40
55064;DHT22;40963;52.168;21.296;2023-04-30T13:23:13;15.30;45.00
55064;DHT22;40963;52.168;21.296;2023-04-30T13:25:39;15.40;44.10
55064;DHT22;40963;52.168;21.296;2023-04-30T13:28:06;15.30;43.30
55064;DHT22;40963;52.168;21.296;2023-04-30T13:30:32;15.30;43.70
55064;DHT22;40963;52.168;21.296;2023-04-30T13:32:58;15.20;44.00
55064;DHT22;40963;52.168;21.296;2023-04-30T13:35:24;15.20;44.30
55064;DHT22;40963;52.168;21.296;2023-04-30T13:37:50;15.20;43.20
55064;DHT22;40963;52.168;21.296;2023-04-30T13:40:17;15.20;43.00
55064;DHT22;40963;52.168;21.296;2023-04-30T13:42:45;15.20;42.30
55064;DHT22;40963;52.168;21.296;2023-04-30T13:45:11;15.20;42.60
55064;DHT22;40963;52.168;21.296;2023-04-30T13:47:37;15.20;42.60
55064;DHT22;40963;52.168;21.296;2023-04-30T13:50:03;15.20;42.10
55064;DHT22;40963;52.168;21.296;2023-04-30T13:52:29;15.10;42.80
55064;DHT22;40963;52.168;21.296;2023-04-30T13:54:55;15.10;42.40
55064;DHT22;40963;52.168;21.296;2023-04-30T13:57:22;15.00;42.40
55064;DHT22;40963;52.168;21.296;2023-04-30T13:59:47;15.00;42.60
55064;DHT22;40963;52.168;21.296;2023-04-30T14:02:13;15.10;42.60
55064;DHT22;40963;52.168;21.296;2023-04-30T14:04:39;15.10;42.50
55064;DHT22;40963;52.168;21.296;2023-04-30T14:07:04;15.20;42.60
55064;DHT22;40963;52.168;21.296;2023-04-30T14:09:30;15.30;42.80
55064;DHT22;40963;52.168;21.296;2023-04-30T14:11:56;15.30;42.10
55064;DHT22;40963;52.168;21.296;2023-04-30T14:14:24;15.30;42.40
55064;DHT22;40963;52.168;21.296;2023-04-30T14:16:50;15.30;41.80
55064;DHT22;40963;52.168;21.296;2023-04-30T14:19:16;15.20;42.00
55064;DHT22;40963;52.168;21.296;2023-04-30T14:21:41;15.20;42.70
55064;DHT22;40963;52.168;21.296;2023-04-30T14:24:08;15.20;42.80
55064;DHT22;40963;52.168;21.296;2023-04-30T14:26:34;15.20;42.60
55064;DHT22;40963;52.168;21.296;2023-04-30T14:28:59;15.20;43.80
55064;DHT22;40963;52.168;21.296;2023-04-30T14:31:25;15.30;42.90
55064;DHT22;40963;52.168;21.296;2023-04-30T14:33:51;15.20;41.90
55064;DHT22;40963;52.168;21.296;2023-04-30T14:36:18;15.20;42.20
55064;DHT22;40963;52.168;21.296;2023-04-30T14:38:43;15.10;42.20
55064;DHT22;40963;52.168;21.296;2023-04-30T14:41:09;15.10;41.10
55064;DHT22;40963;52.168;21.296;2023-04-30T14:43:35;15.00;40.90
55064;DHT22;40963;52.168;21.296;2023-04-30T14:46:01;14.90;40.70
55064;DHT22;40963;52.168;21.296;2023-04-30T14:48:27;14.90;41.00
55064;DHT22;40963;52.168;21.296;2023-04-30T14:50:53;15.00;40.70
55064;DHT22;40963;52.168;21.296;2023-04-30T14:53:19;15.00;40.90
55064;DHT22;40963;52.168;21.296;2023-04-30T14:55:44;14.90;40.20
55064;DHT22;40963;52.168;21.296;2023-04-30T14:58:10;14.90;40.30
55064;DHT22;40963;52.168;21.296;2023-04-30T15:00:36;14.90;40.40
55064;DHT22;40963;52.168;21.296;2023-04-30T15:03:02;14.80;40.90
55064;DHT22;40963;52.168;21.296;2023-04-30T15:05:27;14.80;41.50
55064;DHT22;40963;52.168;21.296;2023-04-30T15:07:53;14.80;41.70
55064;DHT22;40963;52.168;21.296;2023-04-30T15:10:19;14.80;41.10
55064;DHT22;40963;52.168;21.296;2023-04-30T15:12:44;14.80;40.90
55064;DHT22;40963;52.168;21.296;2023-04-30T15:15:11;14.70;40.80
55064;DHT22;40963;52.168;21.296;2023-04-30T15:17:37;14.70;40.20
55064;DHT22;40963;52.168;21.296;2023-04-30T15:20:03;14.70;40.30
55064;DHT22;40963;52.168;21.296;2023-04-30T15:22:29;14.80;40.70
55064;DHT22;40963;52.168;21.296;2023-04-30T15:24:55;14.80;40.50
55064;DHT22;40963;52.168;21.296;2023-04-30T15:27:24;14.90;40.80
55064;DHT22;40963;52.168;21.296;2023-04-30T15:29:51;14.90;41.00
55064;DHT22;40963;52.168;21.296;2023-04-30T15:32:17;14.80;40.80
55064;DHT22;40963;52.168;21.296;2023-04-30T15:34:43;14.70;40.90
55064;DHT22;40963;52.168;21.296;2023-04-30T15:37:09;14.60;41.30
55064;DHT22;40963;52.168;21.296;2023-04-30T15:39:35;14.60;41.60
55064;DHT22;40963;52.168;21.296;2023-04-30T15:42:00;14.60;41.70
55064;DHT22;40963;52.168;21.296;2023-04-30T15:44:26;14.60;41.70
55064;DHT22;40963;52.168;21.296;2023-04-30T15:46:52;14.60;42.10